Portada
METAR-TAF:

METAR-TAF

Aeroports :

Ponta Delgada, Açores, Portugal

latitud: 37-44N, longitud: 025-42W, altitud: 71 m

Observació

L'informe es va fer fa 25 minuts, a les 04:00 UTC
Vent 5 kt del Nord
Temperatura 13°C
Humitat 82%
Pressió 1027 hPa
Visibilitat 10 km o més
Escasses núvols a una alçada de 1600 ft
Cel ennuvolat a una alçada de 3000 ft

METAR: LPPD 210400Z 01005KT 9999 FEW016 BKN030 13/10 Q1027

Hora: 03:25 (04:25 UTC)

Pronòstic

L'informe es va fer fa 5 hores i 25 minuts, a les 23:00 UTC
Pronòstic vàlid del 21 a les 00 UTC al 21 a les 24 UTC
Vent 5 kt amb direcció variable
Visibilitat 10 km o més
Escasses núvols a una alçada de 2000 ft
Cel ennuvolat a una alçada de 3000 ft
Temporalment
l' 21 a les 00 UTC al 21 a les 24 UTC
Escasses núvols a una alçada de 800 ft
Núvols disperses a una alçada de 1800 ft

TAF: LPPD 202300Z 2100/2124 VRB05KT 9999 FEW020 BKN030 TEMPO 2100/2124 FEW008 SCT018

Observacions i pronòstics meteorològics de més de 4000 aeroports (METAR i TAF).

Les estacions disponibles són els punts grocs i vermells al mapa.

Posi el ratolí al punt desitjat per veure el nom de l'estació.

Feu clic per veure les observacions i els pronòstics meteorològics.

Per canviar el mapa: feu clic els botons verds amb una creu de color negre per apropar; al botó verd amb un guió per allunyar la imatge; o en les fletxes verdes per a mapes adjacents.


METAR-TAF: